sensor_id;sensor_type;location;lat;lon;timestamp;P1;durP1;ratioP1;P2;durP2;ratioP2
62796;SDS011;48839;48.546;-4.178;2023-07-20T00:01:22;6.30;;;3.28;;
62796;SDS011;48839;48.546;-4.178;2023-07-20T00:03:48;3.85;;;2.80;;
62796;SDS011;48839;48.546;-4.178;2023-07-20T00:06:19;3.30;;;2.90;;
62796;SDS011;48839;48.546;-4.178;2023-07-20T00:08:45;4.20;;;3.00;;
62796;SDS011;48839;48.546;-4.178;2023-07-20T00:11:11;3.60;;;2.65;;
62796;SDS011;48839;48.546;-4.178;2023-07-20T00:13:38;5.25;;;2.50;;
62796;SDS011;48839;48.546;-4.178;2023-07-20T00:16:04;3.25;;;2.35;;
62796;SDS011;48839;48.546;-4.178;2023-07-20T00:18:31;4.13;;;2.30;;
62796;SDS011;48839;48.546;-4.178;2023-07-20T00:20:57;3.67;;;2.40;;
62796;SDS011;48839;48.546;-4.178;2023-07-20T00:23:25;7.75;;;3.10;;
62796;SDS011;48839;48.546;-4.178;2023-07-20T00:25:51;8.48;;;3.28;;
62796;SDS011;48839;48.546;-4.178;2023-07-20T00:28:17;8.68;;;3.42;;
62796;SDS011;48839;48.546;-4.178;2023-07-20T00:30:43;8.85;;;3.22;;
62796;SDS011;48839;48.546;-4.178;2023-07-20T00:33:10;4.68;;;3.10;;
62796;SDS011;48839;48.546;-4.178;2023-07-20T00:35:36;5.35;;;3.17;;
62796;SDS011;48839;48.546;-4.178;2023-07-20T00:38:03;7.10;;;3.58;;
62796;SDS011;48839;48.546;-4.178;2023-07-20T00:40:29;7.03;;;3.28;;
62796;SDS011;48839;48.546;-4.178;2023-07-20T00:43:01;6.00;;;3.63;;
62796;SDS011;48839;48.546;-4.178;2023-07-20T00:45:27;8.45;;;3.50;;
62796;SDS011;48839;48.546;-4.178;2023-07-20T00:47:53;7.13;;;3.88;;
62796;SDS011;48839;48.546;-4.178;2023-07-20T00:50:19;4.80;;;3.53;;
62796;SDS011;48839;48.546;-4.178;2023-07-20T00:52:45;6.40;;;3.88;;
62796;SDS011;48839;48.546;-4.178;2023-07-20T00:55:11;5.78;;;3.13;;
62796;SDS011;48839;48.546;-4.178;2023-07-20T00:57:37;5.55;;;3.33;;
62796;SDS011;48839;48.546;-4.178;2023-07-20T01:00:04;6.72;;;3.70;;
62796;SDS011;48839;48.546;-4.178;2023-07-20T01:02:30;5.95;;;3.33;;
62796;SDS011;48839;48.546;-4.178;2023-07-20T01:04:56;4.70;;;3.33;;
62796;SDS011;48839;48.546;-4.178;2023-07-20T01:07:26;6.50;;;3.75;;
62796;SDS011;48839;48.546;-4.178;2023-07-20T01:10:01;5.35;;;3.78;;
62796;SDS011;48839;48.546;-4.178;2023-07-20T01:15:06;8.90;;;3.80;;
62796;SDS011;48839;48.546;-4.178;2023-07-20T01:17:33;6.80;;;3.50;;
62796;SDS011;48839;48.546;-4.178;2023-07-20T01:19:59;8.32;;;3.80;;
62796;SDS011;48839;48.546;-4.178;2023-07-20T01:32:54;7.85;;;4.88;;
62796;SDS011;48839;48.546;-4.178;2023-07-20T01:35:21;10.15;;;4.93;;
62796;SDS011;48839;48.546;-4.178;2023-07-20T01:37:49;7.95;;;4.80;;
62796;SDS011;48839;48.546;-4.178;2023-07-20T01:40:16;10.20;;;5.10;;
62796;SDS011;48839;48.546;-4.178;2023-07-20T01:42:43;7.50;;;4.57;;
62796;SDS011;48839;48.546;-4.178;2023-07-20T01:45:10;10.02;;;5.25;;
62796;SDS011;48839;48.546;-4.178;2023-07-20T01:47:36;7.70;;;4.80;;
62796;SDS011;48839;48.546;-4.178;2023-07-20T01:50:02;20.40;;;7.22;;
62796;SDS011;48839;48.546;-4.178;2023-07-20T01:52:29;6.97;;;4.25;;
62796;SDS011;48839;48.546;-4.178;2023-07-20T01:54:55;9.35;;;4.97;;
62796;SDS011;48839;48.546;-4.178;2023-07-20T01:57:21;8.43;;;5.13;;
62796;SDS011;48839;48.546;-4.178;2023-07-20T01:59:47;9.88;;;5.28;;
62796;SDS011;48839;48.546;-4.178;2023-07-20T02:02:13;9.18;;;5.45;;
62796;SDS011;48839;48.546;-4.178;2023-07-20T02:04:39;9.73;;;5.30;;
62796;SDS011;48839;48.546;-4.178;2023-07-20T02:07:05;8.48;;;5.13;;
62796;SDS011;48839;48.546;-4.178;2023-07-20T02:09:31;6.25;;;4.43;;
62796;SDS011;48839;48.546;-4.178;2023-07-20T02:11:57;10.90;;;5.85;;
62796;SDS011;48839;48.546;-4.178;2023-07-20T02:14:23;6.75;;;4.55;;
62796;SDS011;48839;48.546;-4.178;2023-07-20T02:16:49;8.48;;;4.97;;
62796;SDS011;48839;48.546;-4.178;2023-07-20T02:19:17;9.15;;;5.70;;
62796;SDS011;48839;48.546;-4.178;2023-07-20T02:21:44;8.20;;;5.18;;
62796;SDS011;48839;48.546;-4.178;2023-07-20T02:24:10;8.88;;;5.57;;
62796;SDS011;48839;48.546;-4.178;2023-07-20T02:26:36;9.13;;;5.30;;
62796;SDS011;48839;48.546;-4.178;2023-07-20T02:29:02;12.20;;;5.80;;
62796;SDS011;48839;48.546;-4.178;2023-07-20T02:31:29;7.78;;;5.38;;
62796;SDS011;48839;48.546;-4.178;2023-07-20T02:33:55;11.55;;;5.70;;
62796;SDS011;48839;48.546;-4.178;2023-07-20T02:36:22;8.32;;;5.28;;
62796;SDS011;48839;48.546;-4.178;2023-07-20T02:38:48;8.82;;;5.68;;
62796;SDS011;48839;48.546;-4.178;2023-07-20T02:41:14;12.90;;;4.88;;
62796;SDS011;48839;48.546;-4.178;2023-07-20T02:43:40;8.90;;;5.07;;
62796;SDS011;48839;48.546;-4.178;2023-07-20T02:46:06;10.32;;;4.97;;
62796;SDS011;48839;48.546;-4.178;2023-07-20T02:48:32;9.38;;;4.93;;
62796;SDS011;48839;48.546;-4.178;2023-07-20T02:50:58;9.23;;;5.03;;
62796;SDS011;48839;48.546;-4.178;2023-07-20T02:53:24;8.30;;;4.95;;
62796;SDS011;48839;48.546;-4.178;2023-07-20T02:55:50;8.05;;;4.43;;
62796;SDS011;48839;48.546;-4.178;2023-07-20T02:58:16;8.20;;;4.85;;
62796;SDS011;48839;48.546;-4.178;2023-07-20T03:00:42;11.38;;;5.60;;
62796;SDS011;48839;48.546;-4.178;2023-07-20T03:03:09;7.68;;;4.35;;
62796;SDS011;48839;48.546;-4.178;2023-07-20T03:05:35;10.48;;;5.88;;
62796;SDS011;48839;48.546;-4.178;2023-07-20T03:08:04;9.45;;;5.65;;
62796;SDS011;48839;48.546;-4.178;2023-07-20T03:10:31;8.25;;;5.50;;
62796;SDS011;48839;48.546;-4.178;2023-07-20T03:12:57;11.50;;;5.65;;
62796;SDS011;48839;48.546;-4.178;2023-07-20T03:15:23;10.40;;;6.25;;
62796;SDS011;48839;48.546;-4.178;2023-07-20T03:17:49;9.55;;;5.57;;
62796;SDS011;48839;48.546;-4.178;2023-07-20T03:20:16;9.35;;;6.13;;
62796;SDS011;48839;48.546;-4.178;2023-07-20T03:22:42;8.93;;;5.97;;
62796;SDS011;48839;48.546;-4.178;2023-07-20T03:25:08;8.13;;;5.80;;
62796;SDS011;48839;48.546;-4.178;2023-07-20T03:27:34;11.90;;;6.15;;
62796;SDS011;48839;48.546;-4.178;2023-07-20T03:30:01;10.25;;;6.00;;
62796;SDS011;48839;48.546;-4.178;2023-07-20T03:32:27;8.60;;;5.60;;
62796;SDS011;48839;48.546;-4.178;2023-07-20T03:34:53;7.70;;;5.50;;
62796;SDS011;48839;48.546;-4.178;2023-07-20T03:37:19;8.15;;;5.32;;
62796;SDS011;48839;48.546;-4.178;2023-07-20T03:39:45;10.85;;;5.43;;
62796;SDS011;48839;48.546;-4.178;2023-07-20T03:42:11;9.52;;;5.93;;
62796;SDS011;48839;48.546;-4.178;2023-07-20T03:44:37;11.15;;;6.18;;
62796;SDS011;48839;48.546;-4.178;2023-07-20T03:47:03;12.10;;;6.15;;
62796;SDS011;48839;48.546;-4.178;2023-07-20T03:49:29;8.18;;;5.18;;
62796;SDS011;48839;48.546;-4.178;2023-07-20T03:51:55;10.75;;;6.43;;
62796;SDS011;48839;48.546;-4.178;2023-07-20T03:54:21;9.77;;;5.80;;
62796;SDS011;48839;48.546;-4.178;2023-07-20T03:56:47;9.20;;;6.13;;
62796;SDS011;48839;48.546;-4.178;2023-07-20T03:59:14;12.02;;;5.50;;
62796;SDS011;48839;48.546;-4.178;2023-07-20T04:01:40;9.20;;;5.63;;
62796;SDS011;48839;48.546;-4.178;2023-07-20T04:04:06;11.32;;;6.05;;
62796;SDS011;48839;48.546;-4.178;2023-07-20T04:06:33;8.68;;;6.07;;
62796;SDS011;48839;48.546;-4.178;2023-07-20T04:08:59;7.22;;;5.25;;
62796;SDS011;48839;48.546;-4.178;2023-07-20T04:11:25;6.90;;;5.32;;
62796;SDS011;48839;48.546;-4.178;2023-07-20T04:13:51;10.95;;;5.60;;
62796;SDS011;48839;48.546;-4.178;2023-07-20T04:16:17;10.98;;;6.30;;
62796;SDS011;48839;48.546;-4.178;2023-07-20T04:18:44;7.97;;;5.38;;
62796;SDS011;48839;48.546;-4.178;2023-07-20T04:21:11;11.40;;;6.05;;
62796;SDS011;48839;48.546;-4.178;2023-07-20T04:23:37;7.35;;;5.80;;
62796;SDS011;48839;48.546;-4.178;2023-07-20T04:26:03;10.25;;;5.72;;
62796;SDS011;48839;48.546;-4.178;2023-07-20T04:28:29;9.73;;;5.85;;
62796;SDS011;48839;48.546;-4.178;2023-07-20T04:31:08;8.85;;;5.50;;
62796;SDS011;48839;48.546;-4.178;2023-07-20T04:33:35;9.98;;;5.63;;
62796;SDS011;48839;48.546;-4.178;2023-07-20T04:36:01;12.75;;;6.60;;
62796;SDS011;48839;48.546;-4.178;2023-07-20T04:38:27;11.80;;;6.47;;
62796;SDS011;48839;48.546;-4.178;2023-07-20T04:40:53;12.50;;;6.40;;
62796;SDS011;48839;48.546;-4.178;2023-07-20T04:43:19;10.45;;;5.90;;
62796;SDS011;48839;48.546;-4.178;2023-07-20T04:45:45;9.75;;;5.88;;
62796;SDS011;48839;48.546;-4.178;2023-07-20T04:48:12;9.70;;;5.80;;
62796;SDS011;48839;48.546;-4.178;2023-07-20T04:50:39;11.13;;;5.97;;
62796;SDS011;48839;48.546;-4.178;2023-07-20T04:53:06;8.70;;;6.18;;
62796;SDS011;48839;48.546;-4.178;2023-07-20T04:55:32;10.40;;;6.35;;
62796;SDS011;48839;48.546;-4.178;2023-07-20T04:58:02;9.98;;;6.22;;
62796;SDS011;48839;48.546;-4.178;2023-07-20T05:00:28;9.23;;;5.72;;
62796;SDS011;48839;48.546;-4.178;2023-07-20T05:02:54;13.65;;;7.53;;
62796;SDS011;48839;48.546;-4.178;2023-07-20T05:05:20;11.88;;;5.47;;
62796;SDS011;48839;48.546;-4.178;2023-07-20T05:07:47;9.75;;;5.57;;
62796;SDS011;48839;48.546;-4.178;2023-07-20T05:10:13;12.75;;;6.53;;
62796;SDS011;48839;48.546;-4.178;2023-07-20T05:12:39;9.10;;;5.50;;
62796;SDS011;48839;48.546;-4.178;2023-07-20T05:15:05;8.15;;;5.20;;
62796;SDS011;48839;48.546;-4.178;2023-07-20T05:17:31;8.13;;;6.07;;
62796;SDS011;48839;48.546;-4.178;2023-07-20T05:19:57;10.48;;;5.75;;
62796;SDS011;48839;48.546;-4.178;2023-07-20T05:22:23;8.63;;;5.32;;
62796;SDS011;48839;48.546;-4.178;2023-07-20T05:24:49;9.95;;;6.50;;
62796;SDS011;48839;48.546;-4.178;2023-07-20T05:27:16;11.07;;;6.68;;
62796;SDS011;48839;48.546;-4.178;2023-07-20T05:29:45;7.60;;;5.15;;
62796;SDS011;48839;48.546;-4.178;2023-07-20T05:32:11;9.15;;;5.60;;
62796;SDS011;48839;48.546;-4.178;2023-07-20T05:34:37;10.73;;;6.68;;
62796;SDS011;48839;48.546;-4.178;2023-07-20T05:37:03;9.85;;;6.38;;
62796;SDS011;48839;48.546;-4.178;2023-07-20T05:39:29;12.07;;;6.22;;
62796;SDS011;48839;48.546;-4.178;2023-07-20T05:41:55;9.02;;;5.80;;
62796;SDS011;48839;48.546;-4.178;2023-07-20T05:44:21;12.75;;;6.13;;
62796;SDS011;48839;48.546;-4.178;2023-07-20T05:46:47;9.48;;;6.70;;
62796;SDS011;48839;48.546;-4.178;2023-07-20T05:49:13;11.50;;;6.93;;
62796;SDS011;48839;48.546;-4.178;2023-07-20T05:51:39;13.57;;;7.45;;
62796;SDS011;48839;48.546;-4.178;2023-07-20T05:54:05;9.10;;;5.93;;
62796;SDS011;48839;48.546;-4.178;2023-07-20T05:56:31;12.05;;;6.72;;
62796;SDS011;48839;48.546;-4.178;2023-07-20T05:58:57;10.00;;;6.30;;
62796;SDS011;48839;48.546;-4.178;2023-07-20T06:01:23;10.90;;;6.70;;
62796;SDS011;48839;48.546;-4.178;2023-07-20T06:03:52;11.25;;;7.28;;
62796;SDS011;48839;48.546;-4.178;2023-07-20T06:06:18;10.05;;;6.78;;
62796;SDS011;48839;48.546;-4.178;2023-07-20T06:08:44;11.57;;;7.45;;
62796;SDS011;48839;48.546;-4.178;2023-07-20T06:11:10;10.57;;;6.95;;
62796;SDS011;48839;48.546;-4.178;2023-07-20T06:13:36;14.82;;;8.90;;
62796;SDS011;48839;48.546;-4.178;2023-07-20T06:16:02;17.13;;;9.95;;
62796;SDS011;48839;48.546;-4.178;2023-07-20T06:18:28;16.08;;;9.23;;
62796;SDS011;48839;48.546;-4.178;2023-07-20T06:20:56;10.80;;;7.50;;
62796;SDS011;48839;48.546;-4.178;2023-07-20T06:23:22;6.85;;;4.72;;
62796;SDS011;48839;48.546;-4.178;2023-07-20T06:25:48;21.58;;;5.65;;
62796;SDS011;48839;48.546;-4.178;2023-07-20T06:28:14;9.10;;;5.78;;
62796;SDS011;48839;48.546;-4.178;2023-07-20T06:30:40;8.63;;;4.80;;
62796;SDS011;48839;48.546;-4.178;2023-07-20T06:33:06;10.38;;;5.40;;
62796;SDS011;48839;48.546;-4.178;2023-07-20T06:35:33;6.85;;;5.07;;
62796;SDS011;48839;48.546;-4.178;2023-07-20T06:38:00;7.63;;;5.60;;
62796;SDS011;48839;48.546;-4.178;2023-07-20T06:40:26;8.50;;;4.82;;
62796;SDS011;48839;48.546;-4.178;2023-07-20T06:42:52;8.05;;;5.50;;
62796;SDS011;48839;48.546;-4.178;2023-07-20T06:45:18;8.77;;;6.18;;
62796;SDS011;48839;48.546;-4.178;2023-07-20T06:47:44;6.43;;;4.88;;
62796;SDS011;48839;48.546;-4.178;2023-07-20T06:50:11;8.20;;;5.40;;
62796;SDS011;48839;48.546;-4.178;2023-07-20T06:52:37;6.13;;;5.03;;
62796;SDS011;48839;48.546;-4.178;2023-07-20T06:55:04;12.82;;;6.38;;
62796;SDS011;48839;48.546;-4.178;2023-07-20T06:57:30;8.25;;;5.25;;
62796;SDS011;48839;48.546;-4.178;2023-07-20T06:59:56;6.82;;;4.95;;
62796;SDS011;48839;48.546;-4.178;2023-07-20T07:02:22;10.65;;;5.25;;
62796;SDS011;48839;48.546;-4.178;2023-07-20T07:04:48;7.13;;;5.20;;
62796;SDS011;48839;48.546;-4.178;2023-07-20T07:07:14;8.20;;;4.68;;
62796;SDS011;48839;48.546;-4.178;2023-07-20T07:09:41;7.18;;;5.20;;
62796;SDS011;48839;48.546;-4.178;2023-07-20T07:12:07;6.28;;;4.95;;
62796;SDS011;48839;48.546;-4.178;2023-07-20T07:14:33;5.47;;;4.88;;
62796;SDS011;48839;48.546;-4.178;2023-07-20T07:17:00;5.50;;;3.50;;
62796;SDS011;48839;48.546;-4.178;2023-07-20T07:19:26;5.38;;;4.10;;
62796;SDS011;48839;48.546;-4.178;2023-07-20T07:21:52;5.10;;;3.88;;
62796;SDS011;48839;48.546;-4.178;2023-07-20T07:24:18;4.68;;;3.17;;
62796;SDS011;48839;48.546;-4.178;2023-07-20T07:26:44;5.38;;;3.05;;
62796;SDS011;48839;48.546;-4.178;2023-07-20T07:29:10;6.38;;;2.70;;
62796;SDS011;48839;48.546;-4.178;2023-07-20T07:31:36;2.72;;;2.40;;
62796;SDS011;48839;48.546;-4.178;2023-07-20T07:34:03;2.65;;;1.98;;
62796;SDS011;48839;48.546;-4.178;2023-07-20T07:36:30;3.45;;;2.03;;
62796;SDS011;48839;48.546;-4.178;2023-07-20T07:38:56;3.13;;;2.00;;
62796;SDS011;48839;48.546;-4.178;2023-07-20T07:41:22;2.20;;;1.50;;
62796;SDS011;48839;48.546;-4.178;2023-07-20T07:43:48;2.03;;;1.38;;
62796;SDS011;48839;48.546;-4.178;2023-07-20T07:46:14;2.08;;;1.55;;
62796;SDS011;48839;48.546;-4.178;2023-07-20T07:48:41;2.08;;;1.60;;
62796;SDS011;48839;48.546;-4.178;2023-07-20T07:51:08;3.65;;;1.70;;
62796;SDS011;48839;48.546;-4.178;2023-07-20T07:53:34;2.58;;;1.60;;
62796;SDS011;48839;48.546;-4.178;2023-07-20T07:56:01;2.92;;;2.28;;
62796;SDS011;48839;48.546;-4.178;2023-07-20T07:58:28;2.63;;;2.17;;
62796;SDS011;48839;48.546;-4.178;2023-07-20T08:00:54;2.50;;;1.92;;
62796;SDS011;48839;48.546;-4.178;2023-07-20T08:03:20;2.67;;;2.13;;
62796;SDS011;48839;48.546;-4.178;2023-07-20T08:05:49;2.08;;;1.50;;
62796;SDS011;48839;48.546;-4.178;2023-07-20T08:08:15;2.10;;;1.90;;
62796;SDS011;48839;48.546;-4.178;2023-07-20T08:10:41;2.25;;;1.88;;
62796;SDS011;48839;48.546;-4.178;2023-07-20T08:13:07;2.42;;;1.50;;
62796;SDS011;48839;48.546;-4.178;2023-07-20T08:15:33;2.58;;;1.30;;
62796;SDS011;48839;48.546;-4.178;2023-07-20T08:17:59;2.05;;;1.40;;
62796;SDS011;48839;48.546;-4.178;2023-07-20T08:20:25;3.28;;;1.35;;
62796;SDS011;48839;48.546;-4.178;2023-07-20T08:22:52;3.22;;;1.30;;
62796;SDS011;48839;48.546;-4.178;2023-07-20T08:25:19;1.60;;;1.27;;
62796;SDS011;48839;48.546;-4.178;2023-07-20T08:27:45;2.25;;;1.35;;
62796;SDS011;48839;48.546;-4.178;2023-07-20T08:30:12;1.05;;;1.00;;
62796;SDS011;48839;48.546;-4.178;2023-07-20T08:32:38;2.58;;;1.10;;
62796;SDS011;48839;48.546;-4.178;2023-07-20T08:35:04;3.30;;;1.30;;
62796;SDS011;48839;48.546;-4.178;2023-07-20T08:37:31;3.47;;;1.45;;
62796;SDS011;48839;48.546;-4.178;2023-07-20T08:39:57;2.13;;;1.23;;
62796;SDS011;48839;48.546;-4.178;2023-07-20T08:42:23;3.03;;;0.85;;
62796;SDS011;48839;48.546;-4.178;2023-07-20T08:44:49;4.00;;;1.30;;
62796;SDS011;48839;48.546;-4.178;2023-07-20T08:47:16;1.33;;;1.00;;
62796;SDS011;48839;48.546;-4.178;2023-07-20T08:49:42;8.20;;;1.40;;
62796;SDS011;48839;48.546;-4.178;2023-07-20T08:52:08;1.50;;;1.08;;
62796;SDS011;48839;48.546;-4.178;2023-07-20T08:54:34;4.80;;;1.17;;
62796;SDS011;48839;48.546;-4.178;2023-07-20T08:57:04;2.45;;;1.52;;
62796;SDS011;48839;48.546;-4.178;2023-07-20T08:59:31;1.90;;;1.50;;
62796;SDS011;48839;48.546;-4.178;2023-07-20T09:01:58;2.63;;;1.23;;
62796;SDS011;48839;48.546;-4.178;2023-07-20T09:04:24;4.05;;;1.30;;
62796;SDS011;48839;48.546;-4.178;2023-07-20T09:06:50;0.98;;;0.90;;
62796;SDS011;48839;48.546;-4.178;2023-07-20T09:09:17;1.63;;;1.00;;
62796;SDS011;48839;48.546;-4.178;2023-07-20T09:11:43;1.95;;;1.38;;
62796;SDS011;48839;48.546;-4.178;2023-07-20T09:14:11;0.98;;;0.98;;
62796;SDS011;48839;48.546;-4.178;2023-07-20T09:16:51;2.38;;;1.45;;
62796;SDS011;48839;48.546;-4.178;2023-07-20T09:19:18;3.50;;;1.08;;
62796;SDS011;48839;48.546;-4.178;2023-07-20T09:21:49;1.55;;;0.95;;
62796;SDS011;48839;48.546;-4.178;2023-07-20T09:24:17;2.30;;;1.98;;
62796;SDS011;48839;48.546;-4.178;2023-07-20T09:26:43;2.63;;;1.05;;
62796;SDS011;48839;48.546;-4.178;2023-07-20T09:29:10;1.23;;;1.00;;
62796;SDS011;48839;48.546;-4.178;2023-07-20T09:31:36;2.97;;;1.10;;
62796;SDS011;48839;48.546;-4.178;2023-07-20T09:34:04;1.08;;;0.98;;
62796;SDS011;48839;48.546;-4.178;2023-07-20T09:36:32;1.40;;;1.10;;
62796;SDS011;48839;48.546;-4.178;2023-07-20T09:38:59;1.67;;;0.90;;
62796;SDS011;48839;48.546;-4.178;2023-07-20T09:41:25;3.17;;;1.08;;
62796;SDS011;48839;48.546;-4.178;2023-07-20T09:43:51;5.10;;;1.10;;
62796;SDS011;48839;48.546;-4.178;2023-07-20T09:46:18;1.77;;;0.90;;
62796;SDS011;48839;48.546;-4.178;2023-07-20T09:48:54;1.00;;;0.80;;
62796;SDS011;48839;48.546;-4.178;2023-07-20T09:51:23;2.10;;;0.70;;
62796;SDS011;48839;48.546;-4.178;2023-07-20T09:53:51;1.33;;;0.95;;
62796;SDS011;48839;48.546;-4.178;2023-07-20T09:56:20;1.58;;;0.80;;
62796;SDS011;48839;48.546;-4.178;2023-07-20T09:58:46;1.52;;;0.75;;
62796;SDS011;48839;48.546;-4.178;2023-07-20T10:01:13;0.88;;;0.80;;
62796;SDS011;48839;48.546;-4.178;2023-07-20T10:03:41;6.50;;;0.82;;
62796;SDS011;48839;48.546;-4.178;2023-07-20T10:06:10;0.60;;;0.60;;
62796;SDS011;48839;48.546;-4.178;2023-07-20T10:08:38;3.33;;;0.90;;
62796;SDS011;48839;48.546;-4.178;2023-07-20T10:11:06;1.98;;;0.57;;
62796;SDS011;48839;48.546;-4.178;2023-07-20T10:13:32;1.55;;;0.68;;
62796;SDS011;48839;48.546;-4.178;2023-07-20T10:16:03;3.20;;;0.88;;
62796;SDS011;48839;48.546;-4.178;2023-07-20T10:18:44;1.27;;;0.82;;
62796;SDS011;48839;48.546;-4.178;2023-07-20T10:21:13;0.70;;;0.70;;
62796;SDS011;48839;48.546;-4.178;2023-07-20T10:23:41;0.52;;;0.52;;
62796;SDS011;48839;48.546;-4.178;2023-07-20T10:26:08;1.58;;;0.80;;
62796;SDS011;48839;48.546;-4.178;2023-07-20T10:28:36;1.10;;;0.70;;
62796;SDS011;48839;48.546;-4.178;2023-07-20T10:31:02;0.60;;;0.60;;
62796;SDS011;48839;48.546;-4.178;2023-07-20T10:33:28;1.55;;;0.63;;
62796;SDS011;48839;48.546;-4.178;2023-07-20T10:36:00;0.93;;;0.80;;
62796;SDS011;48839;48.546;-4.178;2023-07-20T10:38:42;2.72;;;0.65;;
62796;SDS011;48839;48.546;-4.178;2023-07-20T10:41:42;2.67;;;0.88;;
62796;SDS011;48839;48.546;-4.178;2023-07-20T10:44:02;2.20;;;0.80;;
62796;SDS011;48839;48.546;-4.178;2023-07-20T10:46:35;1.55;;;0.77;;
62796;SDS011;48839;48.546;-4.178;2023-07-20T10:49:08;1.10;;;0.90;;
62796;SDS011;48839;48.546;-4.178;2023-07-20T10:51:39;1.60;;;0.90;;
62796;SDS011;48839;48.546;-4.178;2023-07-20T10:54:07;2.58;;;0.90;;
62796;SDS011;48839;48.546;-4.178;2023-07-20T10:56:33;0.88;;;0.80;;
62796;SDS011;48839;48.546;-4.178;2023-07-20T10:58:59;1.90;;;1.00;;
62796;SDS011;48839;48.546;-4.178;2023-07-20T11:01:29;2.95;;;1.13;;
62796;SDS011;48839;48.546;-4.178;2023-07-20T11:03:59;0.80;;;0.80;;
62796;SDS011;48839;48.546;-4.178;2023-07-20T11:08:55;1.30;;;1.02;;
62796;SDS011;48839;48.546;-4.178;2023-07-20T11:11:22;2.00;;;0.88;;
62796;SDS011;48839;48.546;-4.178;2023-07-20T11:13:55;1.30;;;0.85;;
62796;SDS011;48839;48.546;-4.178;2023-07-20T11:16:38;2.80;;;1.00;;
62796;SDS011;48839;48.546;-4.178;2023-07-20T11:19:05;1.27;;;0.80;;
62796;SDS011;48839;48.546;-4.178;2023-07-20T11:21:35;0.85;;;0.82;;
62796;SDS011;48839;48.546;-4.178;2023-07-20T11:24:05;1.98;;;0.75;;
62796;SDS011;48839;48.546;-4.178;2023-07-20T11:29:30;1.35;;;0.98;;
62796;SDS011;48839;48.546;-4.178;2023-07-20T11:31:56;1.42;;;0.93;;
62796;SDS011;48839;48.546;-4.178;2023-07-20T11:34:26;2.25;;;1.65;;
62796;SDS011;48839;48.546;-4.178;2023-07-20T11:36:52;1.20;;;0.90;;
62796;SDS011;48839;48.546;-4.178;2023-07-20T11:39:21;1.52;;;0.95;;
62796;SDS011;48839;48.546;-4.178;2023-07-20T11:41:50;1.23;;;0.80;;
62796;SDS011;48839;48.546;-4.178;2023-07-20T11:44:17;2.03;;;1.00;;
62796;SDS011;48839;48.546;-4.178;2023-07-20T11:46:44;1.65;;;0.80;;
62796;SDS011;48839;48.546;-4.178;2023-07-20T11:49:11;0.80;;;0.80;;
62796;SDS011;48839;48.546;-4.178;2023-07-20T11:51:37;1.45;;;1.30;;
62796;SDS011;48839;48.546;-4.178;2023-07-20T11:54:04;1.30;;;0.88;;
62796;SDS011;48839;48.546;-4.178;2023-07-20T11:56:31;0.80;;;0.80;;
62796;SDS011;48839;48.546;-4.178;2023-07-20T11:58:57;1.95;;;1.35;;
62796;SDS011;48839;48.546;-4.178;2023-07-20T12:01:26;2.15;;;0.93;;
62796;SDS011;48839;48.546;-4.178;2023-07-20T12:04:00;1.20;;;1.05;;
62796;SDS011;48839;48.546;-4.178;2023-07-20T12:06:30;3.35;;;0.80;;
62796;SDS011;48839;48.546;-4.178;2023-07-20T12:08:57;3.05;;;1.00;;
62796;SDS011;48839;48.546;-4.178;2023-07-20T12:14:16;1.42;;;0.82;;
62796;SDS011;48839;48.546;-4.178;2023-07-20T12:16:43;1.38;;;0.90;;
62796;SDS011;48839;48.546;-4.178;2023-07-20T12:19:10;1.13;;;0.82;;
62796;SDS011;48839;48.546;-4.178;2023-07-20T12:21:37;1.98;;;1.27;;
62796;SDS011;48839;48.546;-4.178;2023-07-20T12:24:04;1.55;;;0.88;;
62796;SDS011;48839;48.546;-4.178;2023-07-20T12:26:31;1.45;;;1.20;;
62796;SDS011;48839;48.546;-4.178;2023-07-20T12:28:57;0.98;;;0.90;;
62796;SDS011;48839;48.546;-4.178;2023-07-20T12:31:25;2.45;;;0.90;;
62796;SDS011;48839;48.546;-4.178;2023-07-20T12:33:52;1.00;;;0.80;;
62796;SDS011;48839;48.546;-4.178;2023-07-20T12:36:20;0.90;;;0.90;;
62796;SDS011;48839;48.546;-4.178;2023-07-20T12:38:46;0.77;;;0.75;;
62796;SDS011;48839;48.546;-4.178;2023-07-20T12:41:12;2.10;;;1.10;;
62796;SDS011;48839;48.546;-4.178;2023-07-20T12:43:39;2.42;;;1.10;;
62796;SDS011;48839;48.546;-4.178;2023-07-20T12:46:05;1.00;;;0.90;;
62796;SDS011;48839;48.546;-4.178;2023-07-20T12:48:31;2.30;;;0.85;;
62796;SDS011;48839;48.546;-4.178;2023-07-20T12:50:58;1.17;;;1.08;;
62796;SDS011;48839;48.546;-4.178;2023-07-20T12:53:24;2.75;;;1.05;;
62796;SDS011;48839;48.546;-4.178;2023-07-20T12:55:50;2.72;;;1.10;;
62796;SDS011;48839;48.546;-4.178;2023-07-20T12:58:16;1.55;;;1.05;;
62796;SDS011;48839;48.546;-4.178;2023-07-20T13:00:42;1.25;;;0.98;;
62796;SDS011;48839;48.546;-4.178;2023-07-20T13:03:08;2.15;;;0.95;;
62796;SDS011;48839;48.546;-4.178;2023-07-20T13:05:35;1.25;;;0.70;;
62796;SDS011;48839;48.546;-4.178;2023-07-20T13:08:01;1.77;;;0.95;;
62796;SDS011;48839;48.546;-4.178;2023-07-20T13:10:27;1.52;;;0.65;;
62796;SDS011;48839;48.546;-4.178;2023-07-20T13:12:54;2.25;;;0.95;;
62796;SDS011;48839;48.546;-4.178;2023-07-20T13:15:20;0.88;;;0.80;;
62796;SDS011;48839;48.546;-4.178;2023-07-20T13:17:46;1.55;;;0.98;;
62796;SDS011;48839;48.546;-4.178;2023-07-20T13:20:12;2.83;;;1.08;;
62796;SDS011;48839;48.546;-4.178;2023-07-20T13:22:39;0.70;;;0.70;;
62796;SDS011;48839;48.546;-4.178;2023-07-20T13:25:05;1.98;;;0.90;;
62796;SDS011;48839;48.546;-4.178;2023-07-20T13:27:31;1.23;;;1.00;;
62796;SDS011;48839;48.546;-4.178;2023-07-20T13:29:58;1.27;;;1.17;;
62796;SDS011;48839;48.546;-4.178;2023-07-20T13:32:25;1.35;;;0.88;;
62796;SDS011;48839;48.546;-4.178;2023-07-20T13:34:51;2.00;;;0.82;;
62796;SDS011;48839;48.546;-4.178;2023-07-20T13:37:17;1.05;;;0.82;;
62796;SDS011;48839;48.546;-4.178;2023-07-20T13:39:44;1.17;;;0.90;;
62796;SDS011;48839;48.546;-4.178;2023-07-20T13:42:10;2.75;;;0.98;;
62796;SDS011;48839;48.546;-4.178;2023-07-20T13:44:37;3.67;;;1.10;;
62796;SDS011;48839;48.546;-4.178;2023-07-20T13:47:03;1.77;;;1.20;;
62796;SDS011;48839;48.546;-4.178;2023-07-20T13:49:33;2.38;;;0.88;;
62796;SDS011;48839;48.546;-4.178;2023-07-20T13:51:59;1.20;;;1.10;;
62796;SDS011;48839;48.546;-4.178;2023-07-20T13:54:25;1.15;;;1.00;;
62796;SDS011;48839;48.546;-4.178;2023-07-20T13:56:51;1.13;;;1.00;;
62796;SDS011;48839;48.546;-4.178;2023-07-20T13:59:17;1.48;;;1.00;;
62796;SDS011;48839;48.546;-4.178;2023-07-20T14:01:44;0.90;;;0.90;;
62796;SDS011;48839;48.546;-4.178;2023-07-20T14:04:10;1.15;;;1.02;;
62796;SDS011;48839;48.546;-4.178;2023-07-20T14:06:36;1.08;;;1.00;;
62796;SDS011;48839;48.546;-4.178;2023-07-20T14:09:02;0.73;;;0.73;;
62796;SDS011;48839;48.546;-4.178;2023-07-20T14:11:28;1.58;;;0.90;;
62796;SDS011;48839;48.546;-4.178;2023-07-20T14:13:54;1.05;;;0.95;;
62796;SDS011;48839;48.546;-4.178;2023-07-20T14:16:23;3.13;;;1.00;;
62796;SDS011;48839;48.546;-4.178;2023-07-20T14:18:49;0.73;;;0.70;;
62796;SDS011;48839;48.546;-4.178;2023-07-20T14:21:16;0.80;;;0.80;;
62796;SDS011;48839;48.546;-4.178;2023-07-20T14:23:44;2.67;;;0.90;;
62796;SDS011;48839;48.546;-4.178;2023-07-20T14:26:10;1.90;;;1.13;;
62796;SDS011;48839;48.546;-4.178;2023-07-20T14:28:36;1.58;;;0.80;;
62796;SDS011;48839;48.546;-4.178;2023-07-20T14:31:03;0.85;;;0.73;;
62796;SDS011;48839;48.546;-4.178;2023-07-20T14:33:29;1.17;;;1.00;;
62796;SDS011;48839;48.546;-4.178;2023-07-20T14:35:55;1.00;;;0.80;;
62796;SDS011;48839;48.546;-4.178;2023-07-20T14:38:21;2.08;;;0.95;;
62796;SDS011;48839;48.546;-4.178;2023-07-20T14:40:47;2.05;;;0.80;;
62796;SDS011;48839;48.546;-4.178;2023-07-20T14:43:13;0.75;;;0.75;;
62796;SDS011;48839;48.546;-4.178;2023-07-20T14:45:41;0.80;;;0.80;;
62796;SDS011;48839;48.546;-4.178;2023-07-20T14:48:07;1.55;;;0.90;;
62796;SDS011;48839;48.546;-4.178;2023-07-20T14:50:34;1.50;;;0.98;;
62796;SDS011;48839;48.546;-4.178;2023-07-20T14:53:00;3.00;;;0.93;;